Česky Dansk Deutsch English Español Suomi Français Magyar Italiano Nederlands norsk Polski Português svenska Türkçe

 

Het Weer

Loei (Thailand)

02:00, 25 juli 2016 (GMT)

NWNNE
WE
SWSSE
Home            
Loei Vientiane Udon Thani Nong Khai Khon Kaen Phitsanulok Uttaradit Nan Phrae Chaiyaphum Sayaboury Nakhon Sawan Lampang Sakon Nakhon Roi Et Luang-Prabang Nakhon Ratchasima Tak Thakhek Nakhon Phanom Savannakhet Chiang Mai Mukdahan

Om een weerknop op uw website of weblog te plaatsen, copieer onderstaande code en plak die in uw pagina. In het eerste vakje staat HTML-code, in het tweede vakje UBB-code.


Add to Google

Details

Wind speed:2 bf, 5 kn, 2.6 m/s, 5.8 miles/h, 9.3 km/h
Wind direction:N, 360° - E, 080°
Visibility:Greater than 10000 m, 10 km, 32800 ft, 6.2 miles
Clouds:Ein wenig bewölkt at 3500 ft, 1067 m
Temperature:28°C, 82°F
Gefühlte Temperatur:32°C, 89°F
Dew-point:24°C, 75°F
Atmospheric pressure:1011 hPa, 758.3 mmHg, 29.85 inHg, 0.998 atm
Relative humidity:78.9 %
METAR:VTUL 250200Z 04005KT 360V080 9999 FEW035 28/24 Q1011

Snelkoppelingen

Actuele weersinformatie van de hele wereld. Voeg locaties toe met het plus (+) symbool. Deze snelkoppelingen kunnen worden toegevoegd aan Google.

Lid van de Technetium groep

website free tracking
StatCounter NetStat W3C Validator

04-08-2020 12:53:36
astro.technetium.be money.technetium.be phote.technetium.be tafeltennistafel.technetium.be www.ligfiets.net